createdAt,value
2022-10-18T00:00:23.115Z,17.50
2022-10-18T00:02:52.001Z,17.42
2022-10-18T00:05:19.877Z,17.50
2022-10-18T00:07:47.466Z,17.52
2022-10-18T00:10:15.030Z,17.52
2022-10-18T00:12:42.614Z,17.47
2022-10-18T00:15:12.127Z,17.55
2022-10-18T00:17:40.740Z,17.50
2022-10-18T00:20:11.293Z,17.47
2022-10-18T00:22:40.132Z,17.46
2022-10-18T00:25:08.863Z,17.40
2022-10-18T00:27:36.801Z,17.39
2022-10-18T00:30:05.069Z,17.41
2022-10-18T00:32:33.016Z,17.35
2022-10-18T00:35:00.868Z,17.32
2022-10-18T00:37:29.722Z,17.33
2022-10-18T00:39:57.311Z,17.27
2022-10-18T00:42:28.981Z,17.29
2022-10-18T00:45:15.715Z,17.38
2022-10-18T00:47:48.199Z,17.39
2022-10-18T00:50:15.836Z,17.39
2022-10-18T00:52:49.842Z,17.38
2022-10-18T00:55:17.541Z,17.34
2022-10-18T00:57:46.121Z,17.29
2022-10-18T01:00:14.503Z,17.32
2022-10-18T01:02:44.410Z,17.36
2022-10-18T01:05:13.327Z,17.33
2022-10-18T01:08:00.028Z,17.19
2022-10-18T01:10:34.610Z,17.13
2022-10-18T01:13:13.580Z,17.23
2022-10-18T01:15:49.935Z,17.26
2022-10-18T01:18:32.220Z,17.29
2022-10-18T01:21:17.806Z,17.26
2022-10-18T01:24:13.043Z,17.31
2022-10-18T01:27:03.030Z,17.27
2022-10-18T01:29:44.207Z,17.09
2022-10-18T01:32:18.008Z,16.98
2022-10-18T01:34:48.880Z,16.83
2022-10-18T01:37:19.457Z,16.76
2022-10-18T01:39:48.764Z,16.68
2022-10-18T01:42:21.212Z,16.72
2022-10-18T01:44:51.838Z,16.75
2022-10-18T01:47:22.483Z,16.82
2022-10-18T01:49:49.990Z,16.91
2022-10-18T01:52:17.650Z,16.94
2022-10-18T01:54:49.913Z,16.97
2022-10-18T01:57:25.690Z,16.99
2022-10-18T02:00:01.127Z,17.01
2022-10-18T02:02:43.698Z,16.95
2022-10-18T02:05:20.219Z,17.05
2022-10-18T02:08:00.436Z,17.08
2022-10-18T02:10:45.603Z,17.07
2022-10-18T02:13:17.321Z,17.08
2022-10-18T02:15:49.627Z,17.06
2022-10-18T02:18:22.291Z,17.02
2022-10-18T02:20:50.725Z,17.00
2022-10-18T02:23:22.969Z,17.02
2022-10-18T02:25:51.608Z,17.13
2022-10-18T02:28:19.500Z,17.12
2022-10-18T02:30:56.955Z,17.18
2022-10-18T02:33:33.443Z,17.16
2022-10-18T02:36:07.342Z,17.11
2022-10-18T02:38:36.117Z,17.13
2022-10-18T02:41:03.670Z,17.17
2022-10-18T02:43:31.407Z,17.05
2022-10-18T02:45:58.998Z,17.06
2022-10-18T02:48:27.946Z,17.03
2022-10-18T02:50:55.520Z,17.05
2022-10-18T02:53:23.056Z,17.11
2022-10-18T02:55:50.630Z,17.04
2022-10-18T02:58:18.111Z,16.96
2022-10-18T03:00:45.682Z,16.87
2022-10-18T03:03:13.268Z,16.89
2022-10-18T03:05:42.148Z,16.90
2022-10-18T03:08:09.762Z,17.08
2022-10-18T03:10:37.303Z,17.14
2022-10-18T03:13:04.956Z,17.20
2022-10-18T03:15:32.552Z,17.10
2022-10-18T03:18:00.105Z,17.02
2022-10-18T03:20:27.720Z,16.94
2022-10-18T03:22:56.563Z,16.98
2022-10-18T03:25:24.163Z,16.96
2022-10-18T03:27:51.776Z,16.95
2022-10-18T03:30:19.396Z,16.98
2022-10-18T03:32:47.068Z,16.99
2022-10-18T03:35:14.659Z,17.03
2022-10-18T03:37:42.383Z,17.02
2022-10-18T03:40:12.174Z,17.02
2022-10-18T03:42:39.765Z,17.03
2022-10-18T03:45:08.483Z,17.15
2022-10-18T03:47:35.999Z,17.17
2022-10-18T03:50:03.737Z,17.17
2022-10-18T03:52:31.674Z,17.08
2022-10-18T03:54:59.455Z,17.05
2022-10-18T03:57:28.387Z,17.08
2022-10-18T03:59:55.922Z,17.05
2022-10-18T04:02:23.538Z,16.94
2022-10-18T04:04:51.158Z,16.87
2022-10-18T04:07:19.148Z,16.84
2022-10-18T04:09:46.759Z,16.89
2022-10-18T04:12:14.366Z,16.85
2022-10-18T04:14:43.304Z,16.79
2022-10-18T04:17:10.892Z,16.72
2022-10-18T04:19:38.530Z,16.69
2022-10-18T04:22:06.087Z,16.46
2022-10-18T04:24:33.620Z,16.41
2022-10-18T04:27:01.176Z,16.44
2022-10-18T04:29:28.709Z,16.45
2022-10-18T04:31:57.688Z,16.41
2022-10-18T04:34:25.595Z,16.59
2022-10-18T04:36:54.218Z,16.62
2022-10-18T04:39:22.029Z,16.51
2022-10-18T04:41:49.696Z,16.40
2022-10-18T04:44:17.362Z,16.43
2022-10-18T04:46:44.970Z,16.48
2022-10-18T04:49:14.362Z,16.51
2022-10-18T04:51:41.920Z,16.49
2022-10-18T04:54:09.496Z,16.43
2022-10-18T04:56:37.179Z,16.41
2022-10-18T04:59:04.769Z,16.38
2022-10-18T05:01:32.380Z,16.34
2022-10-18T05:04:00.686Z,16.35
2022-10-18T05:06:29.596Z,16.36
2022-10-18T05:08:57.272Z,16.37
2022-10-18T05:11:24.841Z,16.37
2022-10-18T05:13:52.467Z,16.30
2022-10-18T05:16:20.126Z,16.32
2022-10-18T05:18:47.684Z,16.38
2022-10-18T05:21:15.735Z,16.40
2022-10-18T05:23:44.687Z,16.40
2022-10-18T05:26:12.283Z,16.42
2022-10-18T05:28:41.048Z,16.42
2022-10-18T05:31:11.865Z,16.34
2022-10-18T05:33:39.595Z,16.34
2022-10-18T05:36:07.808Z,16.38
2022-10-18T05:41:06.924Z,16.46
2022-10-18T05:43:34.543Z,16.38
2022-10-18T05:46:02.116Z,16.33
2022-10-18T05:48:29.680Z,16.32
2022-10-18T05:50:59.412Z,16.25
2022-10-18T05:53:42.433Z,16.33
2022-10-18T05:56:12.688Z,16.22
2022-10-18T05:58:41.218Z,16.18
2022-10-18T06:01:09.779Z,16.27
2022-10-18T06:03:37.559Z,16.38
2022-10-18T06:06:07.323Z,16.35
2022-10-18T06:08:35.933Z,16.37
2022-10-18T06:11:07.638Z,16.38
2022-10-18T06:13:40.724Z,16.48
2022-10-18T06:16:08.811Z,16.52
2022-10-18T06:18:36.392Z,16.56
2022-10-18T06:21:06.432Z,16.47
2022-10-18T06:23:35.583Z,16.37
2022-10-18T06:26:05.849Z,16.36
2022-10-18T06:28:37.011Z,16.34
2022-10-18T06:31:05.226Z,16.34
2022-10-18T06:33:33.952Z,16.36
2022-10-18T06:36:03.056Z,16.38
2022-10-18T06:38:31.224Z,16.47
2022-10-18T06:40:59.896Z,16.50
2022-10-18T06:43:28.017Z,16.44
2022-10-18T06:45:56.988Z,16.56
2022-10-18T06:48:25.214Z,16.61
2022-10-18T06:50:54.709Z,16.60
2022-10-18T06:53:22.412Z,16.63
2022-10-18T06:55:50.475Z,16.61
2022-10-18T06:58:20.521Z,16.61
2022-10-18T07:00:50.865Z,16.57
2022-10-18T07:03:20.570Z,16.63
2022-10-18T07:05:48.216Z,16.56
2022-10-18T07:08:15.890Z,16.55
2022-10-18T07:10:43.927Z,16.51
2022-10-18T07:13:31.502Z,16.52
2022-10-18T07:16:05.907Z,16.56
2022-10-18T07:18:37.486Z,16.55
2022-10-18T07:21:07.463Z,16.52
2022-10-18T07:23:36.281Z,16.56
2022-10-18T07:26:05.946Z,16.64
2022-10-18T07:28:33.779Z,16.80
2022-10-18T07:31:06.193Z,16.90
2022-10-18T07:33:35.381Z,17.02
2022-10-18T07:36:04.588Z,17.02
2022-10-18T07:38:32.428Z,17.05
2022-10-18T07:41:01.214Z,17.15
2022-10-18T07:43:29.388Z,17.14
2022-10-18T07:45:59.100Z,17.08
2022-10-18T07:48:27.429Z,17.16
2022-10-18T07:50:59.469Z,17.22
2022-10-18T07:53:27.255Z,17.25
2022-10-18T07:55:58.629Z,17.33
2022-10-18T07:58:26.320Z,17.45
2022-10-18T08:00:53.973Z,17.55
2022-10-18T08:03:22.016Z,17.75
2022-10-18T08:05:53.598Z,17.88
2022-10-18T08:08:24.451Z,17.92
2022-10-18T08:10:52.276Z,18.06
2022-10-18T08:13:20.234Z,18.19
2022-10-18T08:15:48.598Z,18.27
2022-10-18T08:18:16.200Z,18.48
2022-10-18T08:20:44.497Z,18.48
2022-10-18T08:23:12.364Z,18.48
2022-10-18T08:25:41.267Z,18.50
2022-10-18T08:28:08.896Z,18.52
2022-10-18T08:30:36.970Z,18.62
2022-10-18T08:33:04.711Z,18.75
2022-10-18T08:35:32.918Z,18.88
2022-10-18T08:38:00.520Z,18.78
2022-10-18T08:40:28.529Z,18.76
2022-10-18T08:43:07.879Z,18.79
2022-10-18T08:45:43.345Z,18.65
2022-10-18T08:48:22.675Z,18.60
2022-10-18T08:50:51.895Z,18.67
2022-10-18T08:53:25.305Z,18.63
2022-10-18T08:55:58.483Z,18.68
2022-10-18T08:58:31.882Z,18.57
2022-10-18T09:01:08.158Z,18.74
2022-10-18T09:03:58.749Z,19.01
2022-10-18T09:06:32.703Z,19.14
2022-10-18T09:09:17.545Z,19.30
2022-10-18T09:11:58.108Z,19.59
2022-10-18T09:14:45.650Z,19.69
2022-10-18T09:17:25.307Z,19.88
2022-10-18T09:20:10.861Z,19.88
2022-10-18T09:22:49.434Z,19.95
2022-10-18T09:25:20.328Z,20.11
2022-10-18T09:27:53.400Z,20.33
2022-10-18T09:30:30.669Z,20.44
2022-10-18T09:33:08.329Z,20.58
2022-10-18T09:35:44.355Z,20.30
2022-10-18T09:38:16.733Z,20.57
2022-10-18T09:40:51.608Z,20.35
2022-10-18T09:43:23.921Z,20.52
2022-10-18T09:45:55.374Z,20.64
2022-10-18T09:48:27.974Z,20.61
2022-10-18T09:50:59.478Z,20.94
2022-10-18T09:53:37.462Z,21.24
2022-10-18T09:56:07.815Z,21.28
2022-10-18T09:58:44.008Z,21.40
2022-10-18T10:01:16.730Z,21.44
2022-10-18T10:03:44.347Z,21.33
2022-10-18T10:06:25.294Z,21.27
2022-10-18T10:08:59.219Z,21.13
2022-10-18T10:11:29.332Z,21.21
2022-10-18T10:13:59.620Z,20.83
2022-10-18T10:16:28.993Z,20.38
2022-10-18T10:18:57.148Z,20.26
2022-10-18T10:21:25.607Z,20.37
2022-10-18T10:23:55.747Z,20.09
2022-10-18T10:26:25.235Z,19.91
2022-10-18T10:28:52.917Z,19.36
2022-10-18T10:31:30.198Z,19.31
2022-10-18T10:34:03.571Z,19.33
2022-10-18T10:36:32.193Z,19.59
2022-10-18T10:39:08.767Z,19.68
2022-10-18T10:41:36.721Z,19.91
2022-10-18T10:44:14.814Z,20.26
2022-10-18T10:46:44.049Z,20.68
2022-10-18T10:49:40.333Z,20.90
2022-10-18T10:52:09.290Z,20.98
2022-10-18T10:54:52.104Z,21.03
2022-10-18T10:57:24.137Z,21.18
2022-10-18T10:59:53.991Z,21.18
2022-10-18T11:02:27.119Z,21.19
2022-10-18T11:04:56.336Z,21.09
2022-10-18T11:07:28.955Z,20.89
2022-10-18T11:10:02.249Z,21.27
2022-10-18T11:12:34.752Z,21.45
2022-10-18T11:15:19.144Z,21.34
2022-10-18T11:17:58.663Z,21.56
2022-10-18T11:20:31.948Z,21.58
2022-10-18T11:23:02.734Z,21.46
2022-10-18T11:25:50.587Z,21.07
2022-10-18T11:28:27.611Z,20.76
2022-10-18T11:31:06.032Z,20.67
2022-10-18T11:34:10.697Z,20.94
2022-10-18T11:36:49.347Z,21.17
2022-10-18T11:39:41.198Z,21.33
2022-10-18T11:42:19.691Z,21.43
2022-10-18T11:44:58.399Z,21.45
2022-10-18T11:47:36.981Z,21.52
2022-10-18T11:50:20.277Z,21.28
2022-10-18T11:52:57.769Z,20.91
2022-10-18T11:55:36.568Z,20.48
2022-10-18T11:58:18.278Z,20.46
2022-10-18T12:00:50.244Z,20.43
2022-10-18T12:03:34.651Z,20.43
2022-10-18T12:06:10.116Z,20.34
2022-10-18T12:08:40.825Z,20.33
2022-10-18T12:11:18.685Z,20.46
2022-10-18T12:13:51.065Z,20.54
2022-10-18T12:16:38.970Z,20.73
2022-10-18T12:19:22.061Z,20.43
2022-10-18T12:21:56.101Z,20.27
2022-10-18T12:24:28.217Z,19.83
2022-10-18T12:27:00.022Z,19.84
2022-10-18T12:29:34.037Z,19.87
2022-10-18T12:32:07.992Z,19.86
2022-10-18T12:34:42.979Z,19.89
2022-10-18T12:37:27.853Z,19.79
2022-10-18T12:40:18.515Z,19.54
2022-10-18T12:42:49.018Z,19.48
2022-10-18T12:45:30.051Z,19.41
2022-10-18T12:48:01.269Z,19.50
2022-10-18T12:50:35.751Z,19.43
2022-10-18T12:53:16.917Z,19.64
2022-10-18T12:55:47.323Z,20.20
2022-10-18T12:58:30.171Z,20.43
2022-10-18T13:01:03.599Z,20.34
2022-10-18T13:03:55.324Z,20.82
2022-10-18T13:06:24.538Z,21.16
2022-10-18T13:09:22.443Z,21.09
2022-10-18T13:11:50.595Z,21.03
2022-10-18T13:15:05.950Z,20.87
2022-10-18T13:17:47.826Z,20.62
2022-10-18T13:20:27.315Z,20.59
2022-10-18T13:23:05.318Z,20.48
2022-10-18T13:25:39.615Z,20.44
2022-10-18T13:28:24.290Z,20.43
2022-10-18T13:30:57.582Z,20.53
2022-10-18T13:33:34.633Z,20.53
2022-10-18T13:36:05.178Z,20.43
2022-10-18T13:38:39.313Z,20.52
2022-10-18T13:41:10.343Z,20.65
2022-10-18T13:44:21.307Z,20.53
2022-10-18T13:47:34.145Z,20.72
2022-10-18T13:50:18.058Z,20.67
2022-10-18T13:53:18.467Z,20.31
2022-10-18T13:55:56.643Z,20.16
2022-10-18T13:58:41.100Z,20.11
2022-10-18T14:01:23.882Z,20.05
2022-10-18T14:04:19.464Z,19.82
2022-10-18T14:06:48.448Z,19.89
2022-10-18T14:09:26.337Z,20.02
2022-10-18T14:12:17.230Z,20.25
2022-10-18T14:14:52.023Z,20.41
2022-10-18T14:17:29.225Z,20.66
2022-10-18T14:20:01.267Z,20.89
2022-10-18T14:22:36.379Z,20.97
2022-10-18T14:25:04.025Z,21.13
2022-10-18T14:27:33.250Z,20.91
2022-10-18T14:30:16.498Z,21.12
2022-10-18T14:32:46.254Z,20.97
2022-10-18T14:35:37.372Z,20.92
2022-10-18T14:38:14.774Z,20.60
2022-10-18T14:40:42.599Z,20.31
2022-10-18T14:43:13.070Z,19.99
2022-10-18T14:45:43.018Z,19.80
2022-10-18T14:48:17.018Z,19.91
2022-10-18T14:50:46.879Z,20.11
2022-10-18T14:53:18.365Z,20.16
2022-10-18T14:55:54.381Z,20.13
2022-10-18T14:58:22.376Z,20.23
2022-10-18T15:00:51.622Z,20.27
2022-10-18T15:03:19.823Z,20.14
2022-10-18T15:05:56.657Z,20.15
2022-10-18T15:08:27.831Z,20.30
2022-10-18T15:10:55.712Z,20.33
2022-10-18T15:13:25.073Z,20.35
2022-10-18T15:15:55.148Z,20.28
2022-10-18T15:18:25.016Z,20.26
2022-10-18T15:21:09.022Z,20.20
2022-10-18T15:23:36.581Z,20.08
2022-10-18T15:26:06.650Z,20.06
2022-10-18T15:28:36.786Z,20.02
2022-10-18T15:31:06.803Z,19.92
2022-10-18T15:33:34.769Z,19.82
2022-10-18T15:36:11.042Z,19.74
2022-10-18T15:38:39.060Z,19.78
2022-10-18T15:41:38.532Z,19.55
2022-10-18T15:44:20.025Z,19.39
2022-10-18T15:46:49.834Z,19.36
2022-10-18T15:49:52.407Z,19.23
2022-10-18T15:52:35.188Z,19.06
2022-10-18T15:55:44.111Z,19.03
2022-10-18T15:58:14.340Z,19.14
2022-10-18T16:00:43.897Z,18.96
2022-10-18T16:03:13.427Z,18.88
2022-10-18T16:05:41.525Z,18.88
2022-10-18T16:08:19.594Z,19.06
2022-10-18T16:10:47.187Z,19.12
2022-10-18T16:13:14.765Z,19.04
2022-10-18T16:15:42.436Z,18.92
2022-10-18T16:18:14.761Z,18.77
2022-10-18T16:20:42.422Z,18.61
2022-10-18T16:23:17.305Z,18.48
2022-10-18T16:25:44.919Z,18.39
2022-10-18T16:28:14.987Z,18.31
2022-10-18T16:30:45.966Z,18.17
2022-10-18T16:33:19.186Z,18.10
2022-10-18T16:35:49.985Z,18.02
2022-10-18T16:38:25.102Z,17.88
2022-10-18T16:40:52.885Z,17.80
2022-10-18T16:43:20.448Z,17.74
2022-10-18T16:45:48.515Z,17.70
2022-10-18T16:48:20.495Z,17.59
2022-10-18T16:50:48.516Z,17.55
2022-10-18T16:53:16.847Z,17.49
2022-10-18T16:55:44.878Z,17.39
2022-10-18T16:58:18.116Z,17.32
2022-10-18T17:00:46.959Z,17.24
2022-10-18T17:03:14.972Z,17.17
2022-10-18T17:05:43.997Z,17.12
2022-10-18T17:08:19.233Z,17.11
2022-10-18T17:10:48.419Z,17.11
2022-10-18T17:13:16.014Z,17.11
2022-10-18T17:15:43.938Z,17.07
2022-10-18T17:18:13.941Z,17.04
2022-10-18T17:20:42.261Z,17.02
2022-10-18T17:23:12.184Z,16.96
2022-10-18T17:25:52.676Z,16.97
2022-10-18T17:28:31.123Z,16.97
2022-10-18T17:30:58.826Z,17.01
2022-10-18T17:33:26.404Z,17.11
2022-10-18T17:35:54.064Z,17.18
2022-10-18T17:38:23.071Z,17.22
2022-10-18T17:40:52.645Z,17.29
2022-10-18T17:43:20.301Z,17.35
2022-10-18T17:45:49.155Z,17.34
2022-10-18T17:48:16.771Z,17.22
2022-10-18T17:50:44.434Z,17.10
2022-10-18T17:53:13.002Z,17.05
2022-10-18T17:55:42.024Z,17.02
2022-10-18T17:58:10.119Z,16.94
2022-10-18T18:00:37.732Z,16.94
2022-10-18T18:03:05.563Z,16.90
2022-10-18T18:05:35.066Z,16.84
2022-10-18T18:08:04.215Z,16.80
2022-10-18T18:10:33.833Z,16.78
2022-10-18T18:13:02.830Z,16.71
2022-10-18T18:15:30.714Z,16.67
2022-10-18T18:17:58.563Z,16.61
2022-10-18T18:20:27.224Z,16.57
2022-10-18T18:22:54.770Z,16.56
2022-10-18T18:25:22.310Z,16.53
2022-10-18T18:27:50.034Z,16.57
2022-10-18T18:30:21.669Z,16.55
2022-10-18T18:32:49.278Z,16.53
2022-10-18T18:35:17.076Z,16.51
2022-10-18T18:37:44.720Z,16.49
2022-10-18T18:40:12.390Z,16.46
2022-10-18T18:42:40.186Z,16.42
2022-10-18T18:45:08.713Z,16.41
2022-10-18T18:47:37.738Z,16.39
2022-10-18T18:50:05.750Z,16.36
2022-10-18T18:52:33.683Z,16.31
2022-10-18T18:55:01.503Z,16.28
2022-10-18T18:57:29.319Z,16.22
2022-10-18T18:59:56.861Z,16.18
2022-10-18T19:02:24.410Z,16.15
2022-10-18T19:04:53.382Z,16.10
2022-10-18T19:07:20.914Z,16.07
2022-10-18T19:09:50.554Z,16.07
2022-10-18T19:12:20.635Z,16.06
2022-10-18T19:14:49.236Z,15.97
2022-10-18T19:17:16.990Z,15.98
2022-10-18T19:19:44.607Z,16.00
2022-10-18T19:22:13.537Z,15.97
2022-10-18T19:24:41.064Z,16.01
2022-10-18T19:27:12.346Z,15.96
2022-10-18T19:29:41.385Z,15.99
2022-10-18T19:32:11.957Z,16.04
2022-10-18T19:34:40.166Z,16.08
2022-10-18T19:37:09.399Z,16.09
2022-10-18T19:39:38.607Z,16.10
2022-10-18T19:42:08.807Z,16.15
2022-10-18T19:44:37.802Z,16.09
2022-10-18T19:47:06.734Z,16.05
2022-10-18T19:49:34.357Z,16.00
2022-10-18T19:52:01.963Z,15.93
2022-10-18T19:54:29.722Z,15.94
2022-10-18T19:56:58.702Z,15.95
2022-10-18T19:59:26.407Z,16.00
2022-10-18T20:01:54.103Z,16.07
2022-10-18T20:04:21.917Z,16.10
2022-10-18T20:06:50.691Z,16.14
2022-10-18T20:09:20.761Z,16.22
2022-10-18T20:11:48.802Z,16.22
2022-10-18T20:14:17.775Z,16.27
2022-10-18T20:16:45.360Z,16.33
2022-10-18T20:19:13.042Z,16.37
2022-10-18T20:21:40.751Z,16.33
2022-10-18T20:24:09.251Z,16.27
2022-10-18T20:26:37.250Z,16.26
2022-10-18T20:29:05.369Z,16.38
2022-10-18T20:31:38.502Z,16.38
2022-10-18T20:34:08.601Z,16.32
2022-10-18T20:36:36.626Z,16.37
2022-10-18T20:39:05.520Z,16.25
2022-10-18T20:41:35.247Z,16.13
2022-10-18T20:44:05.065Z,16.16
2022-10-18T20:46:36.612Z,16.15
2022-10-18T20:49:04.751Z,16.07
2022-10-18T20:51:33.620Z,15.97
2022-10-18T20:54:02.022Z,15.89
2022-10-18T20:56:31.409Z,15.75
2022-10-18T20:58:59.171Z,15.67
2022-10-18T21:01:28.697Z,15.55
2022-10-18T21:03:59.407Z,15.50
2022-10-18T21:06:29.383Z,15.44
2022-10-18T21:08:59.212Z,15.41
2022-10-18T21:11:28.338Z,15.33
2022-10-18T21:13:57.445Z,15.27
2022-10-18T21:16:25.144Z,15.34
2022-10-18T21:18:53.091Z,15.35
2022-10-18T21:21:24.371Z,15.30
2022-10-18T21:23:52.837Z,15.26
2022-10-18T21:26:22.932Z,15.17
2022-10-18T21:28:51.875Z,15.14
2022-10-18T21:31:21.249Z,15.13
2022-10-18T21:33:52.817Z,15.27
2022-10-18T21:36:21.995Z,15.29
2022-10-18T21:38:49.894Z,15.27
2022-10-18T21:41:19.904Z,15.23
2022-10-18T21:43:50.047Z,15.32
2022-10-18T21:46:18.825Z,15.14
2022-10-18T21:48:48.409Z,15.12
2022-10-18T21:51:18.606Z,15.09
2022-10-18T21:53:49.489Z,15.11
2022-10-18T21:56:19.348Z,15.09
2022-10-18T21:58:47.270Z,15.10
2022-10-18T22:01:17.462Z,14.99
2022-10-18T22:03:46.582Z,15.03
2022-10-18T22:06:14.973Z,14.96
2022-10-18T22:08:44.345Z,14.83
2022-10-18T22:11:14.132Z,14.92
2022-10-18T22:13:42.458Z,14.95
2022-10-18T22:16:14.152Z,14.92
2022-10-18T22:18:42.452Z,14.86
2022-10-18T22:21:13.141Z,14.81
2022-10-18T22:23:43.026Z,14.73
2022-10-18T22:26:14.066Z,14.73
2022-10-18T22:28:43.685Z,14.75
2022-10-18T22:31:15.217Z,14.76
2022-10-18T22:33:42.880Z,14.76
2022-10-18T22:36:10.867Z,14.75
2022-10-18T22:38:39.214Z,14.72
2022-10-18T22:41:07.365Z,14.71
2022-10-18T22:43:37.234Z,14.62
2022-10-18T22:46:06.424Z,14.58
2022-10-18T22:48:34.325Z,14.51
2022-10-18T22:51:02.133Z,14.52
2022-10-18T22:53:29.732Z,14.51
2022-10-18T22:55:57.304Z,14.45
2022-10-18T22:58:25.154Z,14.41
2022-10-18T23:01:00.948Z,14.34
2022-10-18T23:03:28.731Z,14.31
2022-10-18T23:05:56.583Z,14.43
2022-10-18T23:08:25.052Z,14.44
2022-10-18T23:10:55.612Z,14.38
2022-10-18T23:13:23.576Z,14.42
2022-10-18T23:15:53.924Z,14.48
2022-10-18T23:18:21.630Z,14.51
2022-10-18T23:20:49.238Z,14.59
2022-10-18T23:23:16.818Z,14.62
2022-10-18T23:25:45.368Z,14.70
2022-10-18T23:28:13.587Z,14.67
2022-10-18T23:30:41.337Z,14.71
2022-10-18T23:33:10.178Z,14.63
2022-10-18T23:35:37.849Z,14.48
2022-10-18T23:38:05.476Z,14.54
2022-10-18T23:40:33.043Z,14.49
2022-10-18T23:43:00.557Z,14.34
2022-10-18T23:45:28.118Z,14.34
2022-10-18T23:47:55.654Z,14.27
2022-10-18T23:50:24.568Z,14.21
2022-10-18T23:52:52.102Z,14.14
2022-10-18T23:55:19.677Z,14.14
2022-10-18T23:57:47.217Z,14.00
